Latest Weather Observations for Mount Boyce

IDN60901

Issued at 5:21 pm EDT Tuesday 26 March 2019 (issued every 10 minutes, with the page automatically refreshed every 10 minutes)

About weather observations | Map of Sydney area stations | Latest observations for Sydney area | Other Formats
Station Details ID: 063292 Name: MOUNT BOYCE AWS Lat: -33.62 Lon: 150.27 Height: 1080.0 m
Data from the previous 72 hours. | See also: Recent months at Mount Boyce
Date/Time
EDT
Temp
°C
App
Temp
°C
Dew
Point
°C
Rel
Hum
%
Delta-T
°C
Wind Press
QNH
hPa
Press
MSL
hPa
Rain since
9am
mm
Dir  Spd
km/h
Gust
km/h
Spd
kts
Gust
kts
26/05:00pm 16.6 11.6 1.1 35 7.2 WSW 17 24 9 13 - - 0.2
26/04:30pm 16.7 11.4 1.6 36 7.1 WSW 19 26 10 14 - - 0.2
26/04:00pm 16.9 11.4 1.8 36 7.2 WSW 20 28 11 15 - - 0.2
26/03:30pm 16.8 11.2 0.9 34 7.4 WSW 20 33 11 18 - - 0.2
26/03:00pm 16.2 9.3 -0.1 33 7.4 W 26 39 14 21 - - 0.2
26/02:30pm 16.1 10.3 2.2 39 6.6 WSW 22 37 12 20 - - 0.2
26/02:00pm 15.8 9.6 2.2 40 6.4 WSW 24 43 13 23 - - 0.2
26/01:39pm 14.6 6.8 -0.7 35 6.8 WSW 30 46 16 25 - - 0.2
26/01:30pm 14.9 7.6 0.0 36 6.7 W 28 44 15 24 - - 0.2
26/01:00pm 14.5 8.8 3.0 46 5.5 WSW 22 33 12 18 - - 0.2
26/12:30pm 13.8 8.2 3.3 49 5.0 WSW 22 37 12 20 - - 0.2
26/12:00pm 12.7 6.8 1.4 46 5.1 WSW 22 35 12 19 - - 0.2
26/11:30am 12.1 6.6 2.0 50 4.6 WSW 20 35 11 19 - - 0.2
26/11:00am 11.5 5.3 2.3 53 4.2 W 24 39 13 21 - - 0.2
26/10:30am 11.0 5.8 3.3 59 3.6 W 20 37 11 20 - - 0.2
26/10:00am 10.2 3.1 3.7 64 3.0 W 30 48 16 26 - - 0.0
26/09:30am 9.7 2.3 3.9 67 2.7 W 32 63 17 34 - - 0.0
26/09:00am 8.7 1.3 4.1 73 2.1 W 32 52 17 28 - - 0.4
26/08:30am 8.2 1.2 4.2 76 1.9 WSW 30 52 16 28 - - 0.4
26/08:03am 7.9 1.4 4.8 81 1.5 WSW 28 48 15 26 - - 0.4
26/08:00am 7.7 1.3 5.2 84 1.2 WSW 28 41 15 22 - - 0.4
26/07:30am 7.8 0.8 6.1 89 0.8 W 32 46 17 25 - - 0.4
26/07:09am 8.0 1.0 6.1 88 0.9 W 32 48 17 26 - - 0.4
26/07:08am 7.9 1.3 6.2 89 0.8 W 30 48 16 26 - - 0.4
26/07:00am 8.0 1.8 6.1 88 0.9 W 28 41 15 22 - - 0.4
26/06:48am 8.0 1.8 6.1 88 0.9 W 28 44 15 24 - - 0.4
26/06:30am 8.1 2.7 6.2 88 0.9 W 24 43 13 23 - - 0.4
26/06:16am 8.2 2.4 6.3 88 0.9 W 26 39 14 21 - - 0.4
26/06:00am 8.3 2.9 6.4 88 0.9 W 24 35 13 19 - - 0.4
26/05:41am 8.6 2.5 6.6 87 1.0 W 28 37 15 20 - - 0.4
26/05:34am 8.6 2.9 6.7 88 0.9 W 26 37 14 20 - - 0.4
26/05:30am 8.7 3.0 6.7 87 1.0 WSW 26 37 14 20 - - 0.4
26/05:00am 9.0 3.8 7.1 88 1.0 WSW 24 35 13 19 - - 0.4
26/04:36am 9.3 3.7 7.3 87 1.0 W 26 39 14 21 - - 0.4
26/04:30am 9.3 3.7 7.3 87 1.0 WSW 26 35 14 19 - - 0.4
26/04:00am 9.7 4.6 7.5 86 1.1 WSW 24 35 13 19 - - 0.4
26/03:30am 10.1 4.6 7.7 85 1.2 W 26 35 14 19 - - 0.4
26/03:00am 10.3 4.0 7.5 83 1.4 WSW 30 44 16 24 - - 0.4
26/02:30am 10.8 3.1 7.3 79 1.8 WSW 37 59 20 32 - - 0.4
26/02:12am 11.0 4.3 7.3 78 1.9 WSW 32 57 17 31 - - 0.4
26/02:00am 11.2 4.5 7.3 77 2.0 WSW 32 46 17 25 - - 0.4
26/01:30am 11.4 5.6 8.1 80 1.7 WSW 28 48 15 26 - - 0.4
26/01:22am 11.5 5.2 7.6 77 2.0 WSW 30 48 16 26 - - 0.4
26/01:00am 11.7 6.4 8.4 80 1.7 W 26 39 14 21 - - 0.4
26/12:30am 12.2 8.2 9.2 82 1.6 W 20 32 11 17 - - 0.4
26/12:00am 12.3 6.9 9.5 83 1.5 W 28 39 15 21 - - 0.4
 
Date/Time
EDT
Temp
°C
App
Temp
°C
Dew
Point
°C
Rel
Hum
%
Delta-T
°C
Wind Press
QNH
hPa
Press
MSL
hPa
Rain since
9am
mm
Dir  Spd
km/h
Gust
km/h
Spd
kts
Gust
kts
25/11:30pm 12.6 8.2 10.3 86 1.3 W 24 32 13 17 - - 0.4
25/11:03pm 12.8 7.8 10.9 88 1.1 W 28 37 15 20 - - 0.4
25/11:00pm 12.8 7.8 11.0 89 1.0 W 28 41 15 22 - - 0.4
25/10:30pm 13.0 8.0 11.1 88 1.1 WSW 28 43 15 23 - - 0.4
25/10:00pm 13.3 8.1 11.5 89 1.0 W 30 46 16 25 - - 0.4
25/09:55pm 13.4 8.6 11.8 90 0.9 W 28 46 15 25 - - 0.4
25/09:30pm 13.7 10.0 12.8 94 0.5 W 24 35 13 19 - - 0.4
25/09:27pm 13.8 10.2 12.9 94 0.5 W 24 35 13 19 - - 0.4
25/09:07pm 14.3 9.0 13.2 93 0.6 WSW 33 46 18 25 - - 0.4
25/09:00pm 14.8 10.3 13.7 93 0.6 WSW 30 46 16 25 - - 0.4
25/08:30pm 16.1 11.8 14.3 89 1.1 W 30 48 16 26 - - 0.4
25/08:17pm 17.0 12.1 14.3 84 1.6 W 33 57 18 31 - - 0.4
25/08:00pm 17.1 12.1 14.0 82 1.9 W 33 54 18 29 - - 0.4
25/07:30pm 17.0 13.0 14.1 83 1.7 W 28 54 15 29 - - 0.4
25/07:00pm 17.0 12.5 13.9 82 1.9 W 30 56 16 30 - - 0.4
25/06:30pm 17.1 12.7 14.0 82 1.9 W 30 52 16 28 - - 0.4
25/06:00pm 17.2 12.2 14.1 82 1.9 W 33 57 18 31 - - 0.4
25/05:30pm 17.2 12.2 14.1 82 1.9 W 33 57 18 31 - - 0.4
25/05:25pm 17.1 11.7 14.0 82 1.9 W 35 54 19 29 - - 0.4
25/05:00pm 17.1 12.2 14.2 83 1.7 W 33 59 18 32 - - 0.4
25/04:30pm 16.8 11.6 14.4 86 1.4 W 35 67 19 36 - - 0.4
25/04:13pm 16.5 10.5 14.3 87 1.3 W 39 63 21 34 - - 0.4
25/04:00pm 17.2 11.9 14.1 82 1.9 W 35 72 19 39 - - 0.4
25/03:30pm 17.5 11.3 13.8 79 2.2 W 39 69 21 37 - - 0.4
25/03:00pm 17.5 12.2 14.2 81 2.0 W 35 57 19 31 - - 0.4
25/02:30pm 17.6 11.5 14.1 80 2.1 W 39 59 21 32 - - 0.4
25/02:09pm 17.8 13.5 14.3 80 2.1 W 30 48 16 26 - - 0.4
25/02:00pm 17.8 13.1 14.3 80 2.1 W 32 44 17 24 - - 0.4
25/01:30pm 17.7 12.5 14.4 81 2.0 W 35 61 19 33 - - 0.4
25/01:00pm 17.4 12.1 14.3 82 1.9 W 35 59 19 32 - - 0.4
25/12:38pm 17.1 12.2 14.2 83 1.7 W 33 59 18 32 - - 0.4
25/12:30pm 17.1 11.7 14.0 82 1.9 W 35 59 19 32 - - 0.4
25/12:01pm 16.6 11.6 14.1 85 1.5 WNW 33 54 18 29 - - 0.4
25/12:00pm 16.5 11.6 14.2 86 1.4 W 33 50 18 27 - - 0.4
25/11:30am 16.1 11.1 14.1 88 1.2 WNW 33 52 18 28 - - 0.4
25/11:19am 15.8 11.9 14.3 91 0.9 WNW 28 46 15 25 - - 0.4
25/11:00am 15.4 12.3 14.4 94 0.6 WNW 24 41 13 22 - - 0.4
25/10:40am 14.4 10.2 13.6 95 0.5 W 28 46 15 25 - - 0.4
25/10:32am 14.3 10.2 13.8 97 0.3 W 28 44 15 24 - - 0.4
25/10:30am 14.2 10.1 13.7 97 0.3 W 28 41 15 22 - - 0.4
25/10:00am 13.5 9.1 13.0 97 0.3 W 28 43 15 23 - - 0.4
25/09:47am 13.5 9.9 12.9 96 0.3 W 24 35 13 19 - - 0.4
25/09:45am 13.4 9.7 12.8 96 0.3 W 24 37 13 20 - - 0.4
25/09:30am 13.5 9.8 12.7 95 0.5 WNW 24 44 13 24 - - 0.0
25/09:00am 13.4 10.4 12.5 94 0.5 W 20 32 11 17 - - 4.4
25/08:30am 13.3 9.1 12.5 95 0.5 W 26 39 14 21 - - 4.0
25/08:00am 13.1 10.0 12.3 95 0.5 W 20 33 11 18 - - 4.0
25/07:30am 13.0 8.4 12.2 95 0.5 W 28 43 15 23 - - 3.8
25/07:05am 13.1 9.3 12.5 96 0.3 W 24 39 13 21 - - 3.2
25/07:03am 13.1 9.3 12.5 96 0.3 W 24 32 13 17 - - 3.2
25/07:00am 13.1 9.7 12.5 96 0.3 W 22 30 12 16 - - 3.2
25/06:30am 13.3 10.0 12.7 96 0.3 WSW 22 37 12 20 - - 2.4
25/06:00am 13.8 9.3 12.7 93 0.6 WSW 28 43 15 23 - - 1.4
25/05:56am 13.9 10.3 13.0 94 0.5 WSW 24 37 13 20 - - 1.2
25/05:30am 14.9 10.9 13.1 89 1.1 WSW 26 39 14 21 - - 0.6
25/05:23am 15.0 11.0 13.0 88 1.2 WSW 26 43 14 23 - - 0.6
25/05:10am 15.3 10.9 12.8 85 1.5 WSW 28 46 15 25 - - 0.6
25/05:00am 15.5 12.5 12.6 83 1.7 WSW 20 30 11 16 - - 0.6
25/04:30am 15.6 13.2 12.5 82 1.8 W 17 24 9 13 - - 0.6
25/04:00am 16.3 13.7 12.1 76 2.4 W 17 26 9 14 - - 0.6
25/03:30am 16.6 13.1 12.2 75 2.5 W 22 32 12 17 - - 0.6
25/03:00am 16.4 13.4 12.6 78 2.2 W 20 32 11 17 - - 0.6
25/02:30am 15.6 14.0 12.7 83 1.7 W 13 17 7 9 - - 0.6
25/02:00am 16.1 15.1 12.3 78 2.2 W 9 17 5 9 - - 0.6
25/01:30am 16.3 15.1 12.8 80 2.0 WSW 11 15 6 8 - - 0.6
25/01:00am 16.5 16.0 12.7 78 2.2 WSW 7 11 4 6 - - 0.6
25/12:30am 17.1 16.5 12.2 73 2.8 WSW 7 11 4 6 - - 0.6
25/12:00am 17.6 16.1 11.9 69 3.3 WNW 11 15 6 8 - - 0.6
 
Date/Time
EDT
Temp
°C
App
Temp
°C
Dew
Point
°C
Rel
Hum
%
Delta-T
°C
Wind Press
QNH
hPa
Press
MSL
hPa
Rain since
9am
mm
Dir  Spd
km/h
Gust
km/h
Spd
kts
Gust
kts
24/11:30pm 17.4 16.5 12.5 73 2.9 NNW 9 13 5 7 - - 0.6
24/11:00pm 17.4 17.1 13.3 77 2.4 N 7 11 4 6 - - 0.6
24/10:30pm 17.3 16.5 13.0 76 2.5 W 9 17 5 9 - - 0.6
24/10:00pm 17.3 17.2 13.4 78 2.3 WNW 6 15 3 8 - - 0.6
24/09:30pm 17.3 16.9 14.2 82 1.9 W 9 17 5 9 - - 0.6
24/09:00pm 17.5 16.4 14.4 82 1.9 W 13 20 7 11 - - 0.6
24/08:30pm 17.7 16.1 14.0 79 2.2 W 15 24 8 13 - - 0.6
24/08:00pm 17.8 15.9 14.3 80 2.1 W 17 26 9 14 - - 0.6
24/07:30pm 18.0 16.4 15.1 83 1.8 W 17 26 9 14 - - 0.6
24/07:00pm 18.2 17.2 14.7 80 2.1 W 13 20 7 11 - - 0.6
24/06:30pm 18.4 17.7 14.3 77 2.5 WSW 11 17 6 9 - - 0.6
24/06:00pm 18.5 17.0 13.1 71 3.2 W 13 22 7 12 - - 0.6
24/05:30pm 18.6 18.2 15.3 81 2.0 W 11 19 6 10 - - 0.6
24/05:07pm 19.0 18.2 15.1 78 2.4 W 13 24 7 13 - - 0.6
24/05:00pm 19.5 19.2 14.3 72 3.2 WNW 9 17 5 9 - - 0.4
24/04:48pm 19.9 20.3 15.3 75 2.8 NW 7 13 4 7 - - 0.2
24/04:30pm 21.1 22.7 16.9 77 2.7 NNW 4 13 2 7 - - 0.0
24/04:00pm 22.5 25.1 18.3 77 2.7 ENE 2 9 1 5 - - 0.0
24/03:30pm 23.1 24.5 17.8 72 3.5 ENE 7 9 4 5 - - 0.0
24/03:00pm 24.3 25.5 13.8 52 6.5 CALM 0 0 0 0 - - 0.0
24/02:30pm 25.0 26.1 13.5 48 7.1 CALM 0 4 0 2 - - 0.0
24/02:00pm 25.1 24.8 13.3 48 7.2 WSW 7 11 4 6 - - 0.0
24/01:30pm 25.2 24.6 14.6 51 6.6 WNW 11 19 6 10 - - 0.0
24/01:00pm 24.3 24.5 14.7 55 6.0 W 7 13 4 7 - - 0.0
24/12:30pm 24.0 24.7 15.5 59 5.4 W 6 13 3 7 - - 0.0
24/12:00pm 22.6 21.8 13.9 58 5.3 W 11 15 6 8 - - 0.0
24/11:30am 22.8 22.7 13.8 57 5.5 W 7 11 4 6 - - 0.0
24/11:00am 22.2 21.7 13.8 59 5.1 W 9 13 5 7 - - 0.0
24/10:30am 21.1 21.6 15.0 68 3.8 WSW 6 9 3 5 - - 0.0
24/10:00am 20.9 21.1 14.3 66 4.0 W 6 9 3 5 - - 0.0
24/09:30am 20.5 20.3 13.5 64 4.2 W 7 9 4 5 - - 0.0
24/09:00am 19.9 19.3 12.4 62 4.4 WNW 7 9 4 5 - - 14.4
24/08:30am 18.5 17.8 13.1 71 3.2 NW 9 11 5 6 - - 14.4
24/08:00am 18.5 17.6 12.5 68 3.5 WNW 9 13 5 7 - - 14.4
24/07:30am 18.0 17.1 12.5 70 3.2 WNW 9 11 5 6 - - 14.4
24/07:00am 17.6 16.9 11.9 69 3.3 WNW 7 11 4 6 - - 14.4
24/06:30am 18.4 17.6 11.7 65 3.9 NW 7 13 4 7 - - 14.4
24/06:00am 18.4 17.5 11.2 63 4.1 WNW 7 9 4 5 - - 14.4
24/05:30am 19.1 18.4 12.1 64 4.1 NNW 7 9 4 5 - - 14.4
24/05:00am 17.0 16.1 12.7 76 2.5 WNW 9 13 5 7 - - 14.4
24/04:30am 17.2 16.8 13.1 77 2.4 WNW 7 11 4 6 - - 14.4
24/04:00am 17.1 17.0 14.0 82 1.9 WNW 7 11 4 6 - - 14.4
24/03:30am 16.7 16.6 14.9 89 1.1 WSW 9 11 5 6 - - 14.4
24/03:00am 17.4 17.0 14.1 81 2.0 WNW 9 13 5 7 - - 14.4
24/02:30am 17.5 17.0 14.8 84 1.6 NW 11 17 6 9 - - 14.4
24/02:00am 16.7 16.6 14.9 89 1.1 WNW 9 15 5 8 - - 14.4
24/01:30am 16.7 16.6 14.9 89 1.1 NW 9 13 5 7 - - 14.4
24/01:00am 16.9 17.3 15.4 91 0.9 NW 7 11 4 6 - - 14.4
24/12:30am 17.3 17.2 16.0 92 0.8 NNE 11 15 6 8 - - 14.4
24/12:04am 17.3 16.9 16.2 93 0.7 N 13 19 7 10 - - 14.4
24/12:00am 17.4 16.7 16.4 94 0.6 N 15 19 8 10 - - 14.4
 
Date/Time
EDT
Temp
°C
App
Temp
°C
Dew
Point
°C
Rel
Hum
%
Delta-T
°C
Wind Press
QNH
hPa
Press
MSL
hPa
Rain since
9am
mm
Dir  Spd
km/h
Gust
km/h
Spd
kts
Gust
kts
23/11:56pm 17.3 17.0 16.5 95 0.5 NNE 13 19 7 10 - - 14.4
23/11:30pm 16.6 16.2 16.1 97 0.3 NE 13 20 7 11 - - 14.4
23/11:00pm 16.7 16.7 16.2 97 0.3 ENE 11 15 6 8 - - 14.4
23/10:41pm 16.8 16.8 16.3 97 0.3 NE 11 15 6 8 - - 14.0
23/10:30pm 16.9 16.9 16.3 96 0.4 NE 11 13 6 7 - - 14.0
23/10:23pm 16.8 17.2 16.2 96 0.4 NE 9 13 5 7 - - 14.0
23/10:15pm 16.9 17.7 16.3 96 0.4 ENE 7 9 4 5 - - 14.0
23/10:00pm 17.1 17.6 16.5 96 0.4 NNE 9 11 5 6 - - 14.0
23/09:30pm 17.4 18.0 16.9 97 0.3 ENE 9 11 5 6 - - 14.0
23/09:00pm 17.4 17.7 16.9 97 0.3 NE 11 17 6 9 - - 14.0
23/08:54pm 17.4 17.6 16.8 96 0.4 NE 11 17 6 9 - - 14.0
23/08:45pm 17.3 18.2 16.5 95 0.5 E 7 15 4 8 - - 14.0
23/08:41pm 17.3 18.4 16.5 95 0.5 SSE 6 9 3 5 - - 14.0
23/08:30pm 17.4 18.4 16.8 96 0.4 SSW 7 13 4 7 - - 14.0
23/08:00pm 18.6 19.2 17.6 94 0.6 SE 11 20 6 11 - - 0.8
23/07:30pm 19.0 19.6 17.8 93 0.8 ENE 11 19 6 10 - - 0.2
23/07:28pm 19.0 19.6 17.8 93 0.8 ENE 11 19 6 10 - - 0.2
23/07:24pm 19.1 19.7 17.8 92 0.8 ENE 11 19 6 10 - - 0.2
23/07:00pm 19.6 20.6 17.7 89 1.2 ENE 9 13 5 7 - - 0.2
23/06:30pm 20.4 20.5 15.6 74 3.0 NE 9 17 5 9 - - 0.2
23/06:00pm 21.7 24.0 17.7 78 2.6 ENE 2 7 1 4 - - 0.2
23/05:30pm 22.1 23.2 17.2 74 3.2 E 7 11 4 6 - - 0.2

Latest Capital City Observations: Canberra | Sydney | Melbourne | Brisbane | Adelaide | Perth | Hobart | Darwin

Other formats

Comma delimited format used in spreadsheet applications
http://www.bom.gov.au/fwo/IDN60901/IDN60901.94743.axf

JavaScript Object Notation format (JSON) in row-major order
http://www.bom.gov.au/fwo/IDN60901/IDN60901.94743.json

Data quality

Most of these data are generated automatically and are frequently updated. Quality checks on data are not normally performed. It is possible for incorrect values to appear. Refer to information at About Latest Weather Observations and please check the disclaimer before using these data.